createdAt,value
2023-05-01T00:00:37.808Z,12.60
2023-05-01T00:03:04.684Z,12.60
2023-05-01T00:05:31.679Z,12.70
2023-05-01T00:07:58.371Z,12.60
2023-05-01T00:10:25.132Z,12.70
2023-05-01T00:12:51.810Z,12.70
2023-05-01T00:15:18.654Z,12.60
2023-05-01T00:17:45.434Z,12.60
2023-05-01T00:20:12.505Z,12.50
2023-05-01T00:22:39.244Z,12.60
2023-05-01T00:25:06.463Z,12.60
2023-05-01T00:27:33.078Z,12.60
2023-05-01T00:30:00.156Z,12.60
2023-05-01T00:32:26.827Z,12.60
2023-05-01T00:34:56.200Z,12.60
2023-05-01T00:37:23.038Z,12.60
2023-05-01T00:39:49.782Z,12.50
2023-05-01T00:42:16.479Z,12.50
2023-05-01T00:44:43.096Z,12.10
2023-05-01T00:47:09.788Z,12.10
2023-05-01T00:49:36.574Z,12.00
2023-05-01T00:52:03.401Z,11.90
2023-05-01T00:54:30.657Z,11.80
2023-05-01T00:56:58.200Z,11.80
2023-05-01T00:59:25.441Z,11.90
2023-05-01T01:04:19.162Z,11.30
2023-05-01T01:06:56.044Z,11.40
2023-05-01T01:10:00.300Z,11.50
2023-05-01T01:12:28.402Z,11.60
2023-05-01T01:15:18.937Z,11.40
2023-05-01T01:18:14.139Z,11.40
2023-05-01T01:20:46.601Z,11.70
2023-05-01T01:23:50.826Z,11.80
2023-05-01T01:27:06.162Z,11.70
2023-05-01T01:29:59.285Z,11.70
2023-05-01T01:33:01.608Z,11.80
2023-05-01T01:35:29.798Z,11.80
2023-05-01T01:38:02.236Z,11.60
2023-05-01T01:40:43.806Z,11.70
2023-05-01T01:43:16.731Z,11.60
2023-05-01T01:45:50.242Z,11.80
2023-05-01T01:48:23.738Z,11.80
2023-05-01T01:50:54.025Z,11.90
2023-05-01T01:53:21.981Z,11.70
2023-05-01T01:55:50.167Z,11.60
2023-05-01T01:58:18.246Z,11.70
2023-05-01T02:00:46.008Z,11.80
2023-05-01T02:03:13.685Z,11.90
2023-05-01T02:05:41.763Z,11.90
2023-05-01T02:08:09.542Z,11.60
2023-05-01T02:10:37.223Z,11.60
2023-05-01T02:13:04.218Z,11.60
2023-05-01T02:15:32.662Z,11.60
2023-05-01T02:18:05.119Z,11.50
2023-05-01T02:20:32.699Z,11.60
2023-05-01T02:22:59.997Z,11.70
2023-05-01T02:25:30.505Z,11.80
2023-05-01T02:28:02.632Z,11.80
2023-05-01T02:30:29.446Z,11.80
2023-05-01T02:32:57.622Z,11.90
2023-05-01T02:35:24.543Z,11.80
2023-05-01T02:37:51.504Z,11.70
2023-05-01T02:40:18.687Z,11.70
2023-05-01T02:42:45.994Z,11.60
2023-05-01T02:45:24.828Z,11.60
2023-05-01T02:47:56.286Z,11.80
2023-05-01T02:50:24.363Z,11.90
2023-05-01T02:52:51.511Z,11.80
2023-05-01T02:55:18.423Z,11.70
2023-05-01T02:57:45.054Z,11.60
2023-05-01T03:00:14.067Z,11.60
2023-05-01T03:02:41.287Z,11.70
2023-05-01T03:05:08.635Z,11.70
2023-05-01T03:07:35.493Z,11.70
2023-05-01T03:10:04.003Z,11.90
2023-05-01T03:12:31.436Z,11.90
2023-05-01T03:14:58.181Z,11.90
2023-05-01T03:17:24.985Z,11.80
2023-05-01T03:19:51.828Z,11.80
2023-05-01T03:22:18.472Z,11.80
2023-05-01T03:24:47.362Z,11.80
2023-05-01T03:27:14.171Z,11.70
2023-05-01T03:29:40.932Z,11.70
2023-05-01T03:32:07.669Z,11.80
2023-05-01T03:34:34.893Z,11.80
2023-05-01T03:37:01.551Z,11.80
2023-05-01T03:39:28.225Z,11.80
2023-05-01T03:41:54.844Z,11.80
2023-05-01T03:44:21.489Z,11.70
2023-05-01T03:46:48.231Z,11.70
2023-05-01T03:49:14.909Z,11.60
2023-05-01T03:51:41.658Z,11.50
2023-05-01T03:54:08.324Z,11.50
2023-05-01T03:56:36.545Z,11.60
2023-05-01T03:59:03.233Z,11.60
2023-05-01T04:01:30.000Z,11.60
2023-05-01T04:03:56.725Z,11.60
2023-05-01T04:06:23.809Z,11.50
2023-05-01T04:08:50.482Z,11.50
2023-05-01T04:11:17.281Z,11.50
2023-05-01T04:13:43.933Z,11.50
2023-05-01T04:16:10.809Z,11.60
2023-05-01T04:18:37.491Z,11.60
2023-05-01T04:21:04.488Z,11.70
2023-05-01T04:23:31.245Z,11.60
2023-05-01T04:25:57.824Z,11.60
2023-05-01T04:28:24.497Z,11.60
2023-05-01T04:30:51.158Z,11.50
2023-05-01T04:33:17.835Z,11.50
2023-05-01T04:35:44.537Z,11.50
2023-05-01T04:38:11.669Z,11.50
2023-05-01T04:40:38.348Z,11.40
2023-05-01T04:43:05.285Z,11.40
2023-05-01T04:45:32.562Z,11.50
2023-05-01T04:47:59.284Z,11.50
2023-05-01T04:50:26.663Z,11.60
2023-05-01T04:52:53.308Z,11.50
2023-05-01T04:55:19.939Z,11.50
2023-05-01T04:57:46.793Z,11.50
2023-05-01T05:00:13.752Z,11.50
2023-05-01T05:02:40.586Z,11.40
2023-05-01T05:05:07.489Z,11.40
2023-05-01T05:07:34.118Z,11.40
2023-05-01T05:10:00.825Z,11.40
2023-05-01T05:12:27.447Z,11.50
2023-05-01T05:14:54.099Z,11.50
2023-05-01T05:17:20.787Z,11.50
2023-05-01T05:19:47.710Z,11.40
2023-05-01T05:22:14.394Z,11.40
2023-05-01T05:24:41.084Z,11.30
2023-05-01T05:27:08.368Z,11.40
2023-05-01T05:29:35.100Z,11.20
2023-05-01T05:32:02.126Z,11.20
2023-05-01T05:34:28.952Z,11.20
2023-05-01T05:36:55.586Z,11.30
2023-05-01T05:39:23.723Z,11.40
2023-05-01T05:41:53.022Z,11.40
2023-05-01T05:44:20.643Z,11.40
2023-05-01T05:46:47.634Z,11.40
2023-05-01T05:49:14.406Z,11.40
2023-05-01T05:51:41.189Z,11.50
2023-05-01T05:54:07.958Z,11.50
2023-05-01T05:56:34.646Z,11.50
2023-05-01T05:59:03.595Z,11.50
2023-05-01T06:01:30.515Z,11.50
2023-05-01T06:03:57.212Z,11.50
2023-05-01T06:06:24.892Z,11.50
2023-05-01T06:08:51.615Z,11.60
2023-05-01T06:11:18.483Z,11.60
2023-05-01T06:13:45.189Z,11.70
2023-05-01T06:16:12.171Z,11.50
2023-05-01T06:18:39.091Z,11.40
2023-05-01T06:21:05.960Z,11.40
2023-05-01T06:23:36.255Z,11.40
2023-05-01T06:26:02.940Z,11.50
2023-05-01T06:28:29.641Z,11.50
2023-05-01T06:30:56.348Z,11.60
2023-05-01T06:33:22.991Z,11.60
2023-05-01T06:35:52.271Z,11.70
2023-05-01T06:38:18.906Z,11.70
2023-05-01T06:40:47.045Z,11.70
2023-05-01T06:43:13.679Z,11.70
2023-05-01T06:45:42.021Z,11.70
2023-05-01T06:48:08.728Z,11.50
2023-05-01T06:50:35.686Z,11.60
2023-05-01T06:53:03.044Z,11.50
2023-05-01T06:55:33.878Z,11.40
2023-05-01T06:58:04.839Z,11.50
2023-05-01T07:00:39.302Z,11.50
2023-05-01T07:03:06.129Z,11.50
2023-05-01T07:05:32.813Z,11.60
2023-05-01T07:08:01.871Z,11.40
2023-05-01T07:10:30.240Z,11.20
2023-05-01T07:13:02.626Z,11.40
2023-05-01T07:15:29.826Z,11.50
2023-05-01T07:17:56.796Z,11.50
2023-05-01T07:20:23.513Z,11.40
2023-05-01T07:22:50.462Z,11.50
2023-05-01T07:25:17.215Z,11.50
2023-05-01T07:27:43.858Z,11.60
2023-05-01T07:30:11.133Z,11.60
2023-05-01T07:32:37.908Z,11.50
2023-05-01T07:35:05.037Z,11.60
2023-05-01T07:37:31.679Z,11.70
2023-05-01T07:39:58.754Z,11.70
2023-05-01T07:42:27.455Z,11.70
2023-05-01T07:44:54.159Z,11.80
2023-05-01T07:47:20.941Z,11.60
2023-05-01T07:49:47.649Z,11.70
2023-05-01T07:52:15.465Z,11.80
2023-05-01T07:54:42.180Z,11.80
2023-05-01T07:57:08.900Z,11.90
2023-05-01T07:59:35.572Z,11.90
2023-05-01T08:02:02.608Z,11.90
2023-05-01T08:04:29.606Z,11.90
2023-05-01T08:06:56.372Z,11.90
2023-05-01T08:09:23.205Z,11.80
2023-05-01T08:11:49.850Z,11.90
2023-05-01T08:14:19.601Z,11.80
2023-05-01T08:16:46.525Z,12.00
2023-05-01T08:19:15.053Z,12.10
2023-05-01T08:21:41.738Z,12.20
2023-05-01T08:24:10.748Z,12.30
2023-05-01T08:26:37.689Z,12.20
2023-05-01T08:29:04.429Z,12.10
2023-05-01T08:31:31.164Z,12.30
2023-05-01T08:33:57.897Z,12.30
2023-05-01T08:36:24.550Z,12.20
2023-05-01T08:38:51.470Z,12.30
2023-05-01T08:41:22.095Z,12.30
2023-05-01T08:43:49.570Z,12.40
2023-05-01T08:46:25.876Z,12.40
2023-05-01T08:48:57.774Z,12.50
2023-05-01T08:51:25.925Z,12.70
2023-05-01T08:53:54.135Z,12.80
2023-05-01T08:56:27.017Z,12.80
2023-05-01T08:58:54.884Z,13.20
2023-05-01T09:01:23.378Z,13.30
2023-05-01T09:03:52.596Z,13.50
2023-05-01T09:06:20.480Z,13.30
2023-05-01T09:08:47.276Z,13.50
2023-05-01T09:11:13.970Z,13.70
2023-05-01T09:13:40.808Z,13.60
2023-05-01T09:16:08.770Z,13.80
2023-05-01T09:18:35.789Z,13.90
2023-05-01T09:21:03.481Z,14.20
2023-05-01T09:23:30.563Z,14.20
2023-05-01T09:25:58.732Z,14.40
2023-05-01T09:29:01.723Z,14.60
2023-05-01T09:31:30.340Z,15.00
2023-05-01T09:34:04.352Z,14.90
2023-05-01T09:36:33.086Z,15.10
2023-05-01T09:39:04.134Z,15.40
2023-05-01T09:41:33.856Z,15.50
2023-05-01T09:44:01.451Z,15.70
2023-05-01T09:46:28.295Z,15.70
2023-05-01T09:49:00.072Z,15.50
2023-05-01T09:51:27.929Z,15.50
2023-05-01T09:54:02.639Z,15.60
2023-05-01T09:56:31.799Z,15.90
2023-05-01T09:59:14.013Z,16.10
2023-05-01T10:01:42.694Z,15.90
2023-05-01T10:04:10.025Z,15.80
2023-05-01T10:06:37.719Z,15.70
2023-05-01T10:09:07.288Z,15.90
2023-05-01T10:11:57.231Z,16.20
2023-05-01T10:14:25.202Z,16.60
2023-05-01T10:16:55.555Z,16.30
2023-05-01T10:19:22.565Z,16.70
2023-05-01T10:21:49.852Z,16.70
2023-05-01T10:24:19.905Z,17.00
2023-05-01T10:26:49.072Z,17.00
2023-05-01T10:29:16.288Z,17.00
2023-05-01T10:31:43.200Z,16.90
2023-05-01T10:34:16.413Z,16.70
2023-05-01T10:36:48.574Z,16.80
2023-05-01T10:39:36.168Z,16.70
2023-05-01T10:42:14.438Z,16.90
2023-05-01T10:44:42.351Z,17.00
2023-05-01T10:47:34.708Z,17.20
2023-05-01T10:50:09.611Z,17.30
2023-05-01T10:53:11.822Z,17.40
2023-05-01T10:55:43.862Z,17.40
2023-05-01T10:58:34.359Z,17.50
2023-05-01T11:01:34.193Z,17.70
2023-05-01T11:04:28.234Z,17.90
2023-05-01T11:07:10.798Z,17.70
2023-05-01T11:09:40.968Z,17.80
2023-05-01T11:12:09.407Z,18.00
2023-05-01T11:15:08.935Z,18.00
2023-05-01T11:17:41.577Z,17.80
2023-05-01T11:20:10.026Z,17.60
2023-05-01T11:22:38.496Z,17.20
2023-05-01T11:25:18.363Z,17.30
2023-05-01T11:27:53.012Z,17.30
2023-05-01T11:30:20.232Z,16.90
2023-05-01T11:32:48.714Z,17.10
2023-05-01T11:35:24.184Z,17.40
2023-05-01T11:37:55.870Z,17.20
2023-05-01T11:40:30.792Z,17.40
2023-05-01T11:43:01.398Z,17.30
2023-05-01T11:45:28.511Z,17.30
2023-05-01T11:47:56.112Z,17.30
2023-05-01T11:50:22.976Z,17.50
2023-05-01T11:52:53.417Z,17.50
2023-05-01T11:55:21.189Z,17.70
2023-05-01T11:57:53.143Z,17.60
2023-05-01T12:00:33.996Z,17.70
2023-05-01T12:03:03.947Z,17.70
2023-05-01T12:05:31.928Z,17.80
2023-05-01T12:08:15.249Z,17.70
2023-05-01T12:10:43.813Z,17.70
2023-05-01T12:13:12.869Z,17.60
2023-05-01T12:16:03.250Z,17.70
2023-05-01T12:18:30.199Z,17.60
2023-05-01T12:20:57.041Z,17.60
2023-05-01T12:23:35.994Z,17.60
2023-05-01T12:26:15.114Z,17.60
2023-05-01T12:29:00.076Z,17.60
2023-05-01T12:31:27.932Z,17.60
2023-05-01T12:33:56.606Z,17.50
2023-05-01T12:36:28.077Z,17.40
2023-05-01T12:38:57.961Z,17.40
2023-05-01T12:41:44.343Z,17.40
2023-05-01T12:44:20.274Z,17.40
2023-05-01T12:47:01.028Z,17.20
2023-05-01T12:49:29.684Z,17.20
2023-05-01T12:51:59.242Z,17.20
2023-05-01T12:54:30.227Z,17.20
2023-05-01T12:57:17.832Z,17.00
2023-05-01T12:59:46.264Z,16.90
2023-05-01T13:02:15.907Z,17.00
2023-05-01T13:04:44.288Z,17.10
2023-05-01T13:07:12.757Z,17.20
2023-05-01T13:09:39.439Z,17.40
2023-05-01T13:12:08.860Z,17.30
2023-05-01T13:14:38.435Z,17.70
2023-05-01T13:17:12.014Z,17.60
2023-05-01T13:19:39.668Z,17.60
2023-05-01T13:22:06.745Z,17.80
2023-05-01T13:24:41.677Z,17.90
2023-05-01T13:27:09.538Z,17.70
2023-05-01T13:29:36.385Z,17.80
2023-05-01T13:32:09.956Z,17.80
2023-05-01T13:34:37.657Z,17.60
2023-05-01T13:37:04.312Z,17.70
2023-05-01T13:39:31.096Z,17.80
2023-05-01T13:41:57.866Z,17.70
2023-05-01T13:44:24.641Z,17.60
2023-05-01T13:46:51.311Z,17.60
2023-05-01T13:49:22.236Z,17.40
2023-05-01T13:51:49.088Z,17.40
2023-05-01T13:54:17.035Z,17.30
2023-05-01T13:56:43.748Z,17.30
2023-05-01T13:59:10.732Z,17.00
2023-05-01T14:01:46.260Z,16.90
2023-05-01T14:04:18.159Z,16.80
2023-05-01T14:06:48.479Z,16.70
2023-05-01T14:09:19.060Z,16.60
2023-05-01T14:11:48.055Z,16.40
2023-05-01T14:14:16.943Z,16.10
2023-05-01T14:16:51.008Z,16.10
2023-05-01T14:19:20.758Z,16.30
2023-05-01T14:21:47.622Z,16.10
2023-05-01T14:24:17.996Z,16.20
2023-05-01T14:26:47.738Z,16.40
2023-05-01T14:29:22.239Z,16.30
2023-05-01T14:31:49.144Z,16.20
2023-05-01T14:34:18.510Z,16.10
2023-05-01T14:36:45.397Z,16.10
2023-05-01T14:39:13.206Z,16.10
2023-05-01T14:41:42.632Z,16.00
2023-05-01T14:44:18.327Z,16.10
2023-05-01T14:46:51.517Z,16.30
2023-05-01T14:49:24.388Z,16.20
2023-05-01T14:51:52.331Z,16.30
2023-05-01T14:54:20.306Z,16.10
2023-05-01T14:56:48.508Z,15.90
2023-05-01T14:59:19.071Z,15.80
2023-05-01T15:01:46.078Z,15.80
2023-05-01T15:04:13.191Z,15.90
2023-05-01T15:06:39.995Z,15.90
2023-05-01T15:09:06.825Z,16.00
2023-05-01T15:11:33.561Z,16.20
2023-05-01T15:14:00.231Z,16.20
2023-05-01T15:16:27.602Z,16.20
2023-05-01T15:18:54.597Z,16.20
2023-05-01T15:21:21.305Z,16.10
2023-05-01T15:23:48.169Z,15.90
2023-05-01T15:26:14.916Z,15.90
2023-05-01T15:28:41.791Z,15.90
2023-05-01T15:31:08.526Z,16.00
2023-05-01T15:33:35.479Z,16.20
2023-05-01T15:36:02.248Z,16.10
2023-05-01T15:38:29.807Z,15.80
2023-05-01T15:40:56.725Z,15.80
2023-05-01T15:43:23.475Z,15.70
2023-05-01T15:45:51.364Z,15.70
2023-05-01T15:48:18.280Z,15.50
2023-05-01T15:50:47.332Z,15.30
2023-05-01T15:53:16.961Z,15.20
2023-05-01T15:55:43.755Z,15.20
2023-05-01T15:58:10.962Z,15.40
2023-05-01T16:00:39.715Z,15.40
2023-05-01T16:03:07.820Z,15.30
2023-05-01T16:05:36.958Z,15.40
2023-05-01T16:08:06.421Z,15.40
2023-05-01T16:10:37.380Z,15.40
2023-05-01T16:13:06.305Z,15.60
2023-05-01T16:15:33.987Z,15.70
2023-05-01T16:18:03.974Z,15.70
2023-05-01T16:20:35.909Z,15.70
2023-05-01T16:23:02.769Z,15.70
2023-05-01T16:25:29.498Z,15.70
2023-05-01T16:27:56.237Z,15.80
2023-05-01T16:30:27.528Z,15.80
2023-05-01T16:32:54.385Z,15.90
2023-05-01T16:35:27.406Z,15.90
2023-05-01T16:37:55.409Z,16.00
2023-05-01T16:40:23.054Z,16.00
2023-05-01T16:42:54.146Z,16.10
2023-05-01T16:45:21.740Z,16.10
2023-05-01T16:47:48.619Z,16.20
2023-05-01T16:50:16.492Z,16.10
2023-05-01T16:52:43.308Z,16.00
2023-05-01T16:55:10.210Z,16.00
2023-05-01T16:57:37.038Z,15.80
2023-05-01T17:00:05.229Z,15.80
2023-05-01T17:02:33.404Z,15.70
2023-05-01T17:05:00.302Z,15.70
2023-05-01T17:07:27.223Z,15.60
2023-05-01T17:09:54.292Z,15.60
2023-05-01T17:12:21.121Z,15.40
2023-05-01T17:14:47.778Z,15.50
2023-05-01T17:17:15.469Z,15.50
2023-05-01T17:19:42.252Z,15.60
2023-05-01T17:22:09.160Z,15.60
2023-05-01T17:24:36.617Z,15.60
2023-05-01T17:27:03.632Z,15.60
2023-05-01T17:29:30.649Z,15.60
2023-05-01T17:31:57.726Z,15.40
2023-05-01T17:34:24.535Z,15.30
2023-05-01T17:36:51.236Z,15.20
2023-05-01T17:39:18.546Z,15.20
2023-05-01T17:41:45.383Z,15.10
2023-05-01T17:44:12.065Z,14.90
2023-05-01T17:46:39.412Z,15.10
2023-05-01T17:49:07.439Z,15.10
2023-05-01T17:51:34.234Z,14.90
2023-05-01T17:54:01.532Z,15.00
2023-05-01T17:56:28.470Z,15.00
2023-05-01T17:58:55.276Z,15.00
2023-05-01T18:01:22.374Z,15.10
2023-05-01T18:03:49.529Z,15.10
2023-05-01T18:06:16.906Z,15.10
2023-05-01T18:08:43.689Z,15.00
2023-05-01T18:11:10.495Z,14.90
2023-05-01T18:13:42.431Z,15.00
2023-05-01T18:16:11.156Z,15.00
2023-05-01T18:18:38.025Z,15.00
2023-05-01T18:21:04.957Z,15.00
2023-05-01T18:23:31.717Z,14.80
2023-05-01T18:25:59.215Z,14.90
2023-05-01T18:28:26.716Z,14.80
2023-05-01T18:30:53.498Z,14.80
2023-05-01T18:33:21.452Z,14.90
2023-05-01T18:35:48.327Z,14.90
2023-05-01T18:38:15.091Z,14.90
2023-05-01T18:40:41.792Z,14.90
2023-05-01T18:43:08.609Z,14.80
2023-05-01T18:45:35.478Z,14.70
2023-05-01T18:48:03.117Z,14.70
2023-05-01T18:50:30.226Z,14.70
2023-05-01T18:52:57.008Z,14.70
2023-05-01T18:55:23.883Z,14.60
2023-05-01T18:57:50.986Z,14.60
2023-05-01T19:00:18.090Z,14.60
2023-05-01T19:02:51.427Z,14.60
2023-05-01T19:05:19.199Z,14.70
2023-05-01T19:07:46.537Z,14.70
2023-05-01T19:10:13.469Z,14.70
2023-05-01T19:12:41.223Z,14.70
2023-05-01T19:15:08.835Z,14.80
2023-05-01T19:17:35.598Z,14.80
2023-05-01T19:20:04.556Z,14.70
2023-05-01T19:22:31.530Z,14.70
2023-05-01T19:25:00.136Z,14.70
2023-05-01T19:27:27.284Z,14.50
2023-05-01T19:29:54.618Z,14.50
2023-05-01T19:32:21.590Z,14.50
2023-05-01T19:34:48.599Z,14.50
2023-05-01T19:37:15.832Z,14.40
2023-05-01T19:39:42.794Z,14.40
2023-05-01T19:42:09.518Z,14.30
2023-05-01T19:44:36.328Z,14.30
2023-05-01T19:47:03.186Z,14.20
2023-05-01T19:49:30.780Z,14.30
2023-05-01T19:51:57.701Z,14.30
2023-05-01T19:54:28.646Z,14.20
2023-05-01T19:56:56.140Z,14.20
2023-05-01T19:59:23.270Z,14.30
2023-05-01T20:01:51.736Z,14.30
2023-05-01T20:04:19.419Z,14.40
2023-05-01T20:06:46.883Z,14.40
2023-05-01T20:09:13.787Z,14.40
2023-05-01T20:11:41.057Z,14.30
2023-05-01T20:14:07.981Z,14.30
2023-05-01T20:16:35.823Z,14.20
2023-05-01T20:19:02.691Z,14.20
2023-05-01T20:21:29.623Z,14.20
2023-05-01T20:23:57.632Z,14.10
2023-05-01T20:26:24.833Z,14.10
2023-05-01T20:28:52.283Z,14.10
2023-05-01T20:31:19.067Z,14.10
2023-05-01T20:33:46.040Z,14.00
2023-05-01T20:36:14.010Z,14.00
2023-05-01T20:38:43.062Z,13.70
2023-05-01T20:41:10.032Z,13.80
2023-05-01T20:43:37.003Z,13.70
2023-05-01T20:46:03.914Z,13.60
2023-05-01T20:48:31.711Z,13.60
2023-05-01T20:50:58.527Z,13.70
2023-05-01T20:53:25.381Z,13.80
2023-05-01T20:55:52.259Z,13.80
2023-05-01T20:58:19.084Z,13.80
2023-05-01T21:00:45.829Z,13.90
2023-05-01T21:03:14.496Z,13.80
2023-05-01T21:05:41.396Z,13.80
2023-05-01T21:08:08.209Z,13.90
2023-05-01T21:10:35.930Z,13.90
2023-05-01T21:13:02.950Z,13.90
2023-05-01T21:15:31.748Z,13.90
2023-05-01T21:17:58.696Z,13.90
2023-05-01T21:20:32.315Z,13.80
2023-05-01T21:23:02.525Z,13.80
2023-05-01T21:25:31.608Z,13.80
2023-05-01T21:28:02.092Z,13.80
2023-05-01T21:30:31.153Z,13.70
2023-05-01T21:32:58.441Z,13.70
2023-05-01T21:35:26.508Z,13.60
2023-05-01T21:37:53.226Z,13.50
2023-05-01T21:40:20.275Z,13.50
2023-05-01T21:42:46.999Z,13.40
2023-05-01T21:45:17.017Z,13.30
2023-05-01T21:47:47.787Z,13.20
2023-05-01T21:50:17.507Z,13.30
2023-05-01T21:52:46.046Z,13.30
2023-05-01T21:55:21.595Z,13.20
2023-05-01T21:57:49.980Z,13.30
2023-05-01T22:00:18.100Z,13.30
2023-05-01T22:02:49.652Z,13.30
2023-05-01T22:05:18.800Z,13.30
2023-05-01T22:07:47.039Z,13.20
2023-05-01T22:10:15.884Z,13.20
2023-05-01T22:12:43.822Z,13.10
2023-05-01T22:15:11.883Z,13.10
2023-05-01T22:17:39.604Z,13.10
2023-05-01T22:20:07.421Z,13.20
2023-05-01T22:22:35.290Z,13.20
2023-05-01T22:25:02.448Z,13.10
2023-05-01T22:27:29.655Z,13.10
2023-05-01T22:29:56.538Z,13.10
2023-05-01T22:32:23.425Z,13.10
2023-05-01T22:34:50.310Z,13.00
2023-05-01T22:37:18.138Z,13.00
2023-05-01T22:39:44.893Z,13.00
2023-05-01T22:42:11.571Z,13.00
2023-05-01T22:44:38.294Z,12.90
2023-05-01T22:47:04.885Z,13.00
2023-05-01T22:49:32.667Z,12.90
2023-05-01T22:51:59.752Z,12.90
2023-05-01T22:54:26.532Z,12.80
2023-05-01T22:56:53.180Z,12.70
2023-05-01T22:59:21.423Z,12.70
2023-05-01T23:01:48.370Z,12.80
2023-05-01T23:04:15.465Z,12.70
2023-05-01T23:06:43.157Z,12.70
2023-05-01T23:09:10.247Z,12.70
2023-05-01T23:11:38.545Z,12.70
2023-05-01T23:14:05.224Z,12.60
2023-05-01T23:16:39.539Z,12.60
2023-05-01T23:19:09.460Z,12.50
2023-05-01T23:21:36.119Z,12.40
2023-05-01T23:24:03.137Z,12.20
2023-05-01T23:26:29.852Z,12.10
2023-05-01T23:28:56.570Z,12.00
2023-05-01T23:31:29.110Z,11.80
2023-05-01T23:33:55.847Z,11.80
2023-05-01T23:36:22.701Z,11.90
2023-05-01T23:38:49.575Z,12.00
2023-05-01T23:41:16.552Z,12.10
2023-05-01T23:43:47.825Z,12.10
2023-05-01T23:46:14.598Z,12.00
2023-05-01T23:48:41.612Z,11.80
2023-05-01T23:51:08.815Z,11.90
2023-05-01T23:53:35.458Z,12.00
2023-05-01T23:56:02.182Z,12.00
2023-05-01T23:58:28.837Z,12.00
